sensor_id;sensor_type;location;lat;lon;timestamp;P1;durP1;ratioP1;P2;durP2;ratioP2
41719;SDS011;27405;53.316;-6.294;2022-08-19T00:00:05;23.15;;;4.45;;
41719;SDS011;27405;53.316;-6.294;2022-08-19T00:02:33;23.00;;;4.30;;
41719;SDS011;27405;53.316;-6.294;2022-08-19T00:05:00;21.73;;;3.95;;
41719;SDS011;27405;53.316;-6.294;2022-08-19T00:07:26;25.25;;;4.50;;
41719;SDS011;27405;53.316;-6.294;2022-08-19T00:09:52;23.35;;;4.32;;
41719;SDS011;27405;53.316;-6.294;2022-08-19T00:12:19;22.33;;;4.15;;
41719;SDS011;27405;53.316;-6.294;2022-08-19T00:18:07;25.52;;;4.20;;
41719;SDS011;27405;53.316;-6.294;2022-08-19T00:20:33;27.13;;;4.18;;
41719;SDS011;27405;53.316;-6.294;2022-08-19T00:22:59;26.23;;;4.28;;
41719;SDS011;27405;53.316;-6.294;2022-08-19T00:25:25;29.65;;;4.45;;
41719;SDS011;27405;53.316;-6.294;2022-08-19T00:27:51;25.52;;;4.32;;
41719;SDS011;27405;53.316;-6.294;2022-08-19T00:30:17;25.25;;;4.45;;
41719;SDS011;27405;53.316;-6.294;2022-08-19T00:32:43;23.23;;;4.00;;
41719;SDS011;27405;53.316;-6.294;2022-08-19T00:35:09;27.55;;;4.70;;
41719;SDS011;27405;53.316;-6.294;2022-08-19T00:37:35;21.35;;;4.05;;
41719;SDS011;27405;53.316;-6.294;2022-08-19T00:40:03;28.90;;;4.80;;
41719;SDS011;27405;53.316;-6.294;2022-08-19T00:42:31;26.83;;;5.32;;
41719;SDS011;27405;53.316;-6.294;2022-08-19T00:44:57;25.27;;;4.38;;
41719;SDS011;27405;53.316;-6.294;2022-08-19T00:47:23;30.77;;;4.75;;
41719;SDS011;27405;53.316;-6.294;2022-08-19T00:49:51;28.70;;;4.25;;
41719;SDS011;27405;53.316;-6.294;2022-08-19T00:52:22;25.83;;;4.38;;
41719;SDS011;27405;53.316;-6.294;2022-08-19T00:54:57;31.13;;;4.95;;
41719;SDS011;27405;53.316;-6.294;2022-08-19T00:57:26;25.27;;;4.10;;
41719;SDS011;27405;53.316;-6.294;2022-08-19T00:59:58;29.52;;;4.10;;
41719;SDS011;27405;53.316;-6.294;2022-08-19T01:02:25;21.27;;;4.35;;
41719;SDS011;27405;53.316;-6.294;2022-08-19T01:08:15;28.98;;;4.60;;
41719;SDS011;27405;53.316;-6.294;2022-08-19T01:10:45;29.23;;;4.80;;
41719;SDS011;27405;53.316;-6.294;2022-08-19T01:13:14;29.05;;;4.78;;
41719;SDS011;27405;53.316;-6.294;2022-08-19T01:15:43;28.45;;;5.22;;
41719;SDS011;27405;53.316;-6.294;2022-08-19T01:18:14;28.98;;;4.85;;
41719;SDS011;27405;53.316;-6.294;2022-08-19T01:20:42;27.00;;;4.47;;
41719;SDS011;27405;53.316;-6.294;2022-08-19T01:23:09;25.05;;;4.57;;
41719;SDS011;27405;53.316;-6.294;2022-08-19T01:25:46;23.95;;;4.25;;
41719;SDS011;27405;53.316;-6.294;2022-08-19T01:28:17;27.67;;;4.90;;
41719;SDS011;27405;53.316;-6.294;2022-08-19T01:30:46;25.73;;;4.70;;
41719;SDS011;27405;53.316;-6.294;2022-08-19T01:33:13;24.50;;;4.82;;
41719;SDS011;27405;53.316;-6.294;2022-08-19T01:35:40;23.90;;;4.75;;
41719;SDS011;27405;53.316;-6.294;2022-08-19T01:38:07;25.73;;;4.65;;
41719;SDS011;27405;53.316;-6.294;2022-08-19T01:40:36;26.52;;;4.65;;
41719;SDS011;27405;53.316;-6.294;2022-08-19T01:43:04;29.95;;;5.22;;
41719;SDS011;27405;53.316;-6.294;2022-08-19T01:45:32;25.95;;;4.60;;
41719;SDS011;27405;53.316;-6.294;2022-08-19T01:47:59;27.60;;;5.33;;
41719;SDS011;27405;53.316;-6.294;2022-08-19T01:50:25;27.67;;;5.07;;
41719;SDS011;27405;53.316;-6.294;2022-08-19T01:52:52;27.95;;;5.07;;
41719;SDS011;27405;53.316;-6.294;2022-08-19T01:55:20;29.98;;;4.78;;
41719;SDS011;27405;53.316;-6.294;2022-08-19T01:57:50;28.65;;;5.13;;
41719;SDS011;27405;53.316;-6.294;2022-08-19T02:00:20;24.25;;;4.57;;
41719;SDS011;27405;53.316;-6.294;2022-08-19T02:02:49;31.77;;;5.20;;
41719;SDS011;27405;53.316;-6.294;2022-08-19T02:05:15;27.85;;;5.05;;
41719;SDS011;27405;53.316;-6.294;2022-08-19T02:07:43;29.90;;;5.33;;
41719;SDS011;27405;53.316;-6.294;2022-08-19T02:10:12;28.02;;;5.15;;
41719;SDS011;27405;53.316;-6.294;2022-08-19T02:12:40;27.65;;;4.68;;
41719;SDS011;27405;53.316;-6.294;2022-08-19T02:15:07;24.90;;;4.80;;
41719;SDS011;27405;53.316;-6.294;2022-08-19T02:17:33;21.77;;;4.50;;
41719;SDS011;27405;53.316;-6.294;2022-08-19T02:19:59;28.02;;;4.70;;
41719;SDS011;27405;53.316;-6.294;2022-08-19T02:22:26;29.20;;;5.40;;
41719;SDS011;27405;53.316;-6.294;2022-08-19T02:24:53;27.58;;;4.50;;
41719;SDS011;27405;53.316;-6.294;2022-08-19T02:27:20;26.30;;;4.63;;
41719;SDS011;27405;53.316;-6.294;2022-08-19T02:29:47;30.98;;;5.72;;
41719;SDS011;27405;53.316;-6.294;2022-08-19T02:32:14;26.63;;;4.65;;
41719;SDS011;27405;53.316;-6.294;2022-08-19T02:34:41;25.15;;;5.38;;
41719;SDS011;27405;53.316;-6.294;2022-08-19T02:37:07;24.60;;;4.10;;
41719;SDS011;27405;53.316;-6.294;2022-08-19T02:39:53;24.27;;;4.55;;
41719;SDS011;27405;53.316;-6.294;2022-08-19T02:42:19;25.52;;;4.63;;
41719;SDS011;27405;53.316;-6.294;2022-08-19T02:44:45;24.00;;;5.00;;
41719;SDS011;27405;53.316;-6.294;2022-08-19T02:47:11;31.35;;;4.65;;
41719;SDS011;27405;53.316;-6.294;2022-08-19T02:49:39;25.13;;;4.68;;
41719;SDS011;27405;53.316;-6.294;2022-08-19T02:52:05;31.00;;;4.72;;
41719;SDS011;27405;53.316;-6.294;2022-08-19T02:54:31;30.10;;;4.63;;
41719;SDS011;27405;53.316;-6.294;2022-08-19T02:56:57;26.98;;;4.43;;
41719;SDS011;27405;53.316;-6.294;2022-08-19T02:59:23;29.80;;;4.50;;
41719;SDS011;27405;53.316;-6.294;2022-08-19T03:01:51;27.48;;;4.38;;
41719;SDS011;27405;53.316;-6.294;2022-08-19T03:04:17;31.27;;;4.97;;
41719;SDS011;27405;53.316;-6.294;2022-08-19T03:06:45;24.63;;;4.75;;
41719;SDS011;27405;53.316;-6.294;2022-08-19T03:09:12;27.58;;;4.90;;
41719;SDS011;27405;53.316;-6.294;2022-08-19T03:11:39;21.73;;;3.97;;
41719;SDS011;27405;53.316;-6.294;2022-08-19T03:14:05;22.00;;;4.30;;
41719;SDS011;27405;53.316;-6.294;2022-08-19T03:16:34;24.48;;;3.97;;
41719;SDS011;27405;53.316;-6.294;2022-08-19T03:19:06;23.00;;;4.15;;
41719;SDS011;27405;53.316;-6.294;2022-08-19T03:21:32;24.00;;;3.95;;
41719;SDS011;27405;53.316;-6.294;2022-08-19T03:24:04;24.40;;;4.57;;
41719;SDS011;27405;53.316;-6.294;2022-08-19T03:26:32;22.40;;;3.85;;
41719;SDS011;27405;53.316;-6.294;2022-08-19T03:29:01;22.92;;;3.70;;
41719;SDS011;27405;53.316;-6.294;2022-08-19T03:31:28;17.88;;;3.38;;
41719;SDS011;27405;53.316;-6.294;2022-08-19T03:33:54;27.35;;;4.18;;
41719;SDS011;27405;53.316;-6.294;2022-08-19T03:36:23;26.15;;;4.18;;
41719;SDS011;27405;53.316;-6.294;2022-08-19T03:38:53;19.00;;;3.50;;
41719;SDS011;27405;53.316;-6.294;2022-08-19T03:41:22;20.00;;;3.67;;
41719;SDS011;27405;53.316;-6.294;2022-08-19T03:43:53;18.20;;;3.25;;
41719;SDS011;27405;53.316;-6.294;2022-08-19T03:46:20;23.10;;;3.55;;
41719;SDS011;27405;53.316;-6.294;2022-08-19T03:48:49;19.65;;;3.30;;
41719;SDS011;27405;53.316;-6.294;2022-08-19T03:51:27;22.10;;;3.60;;
41719;SDS011;27405;53.316;-6.294;2022-08-19T03:53:56;20.75;;;3.38;;
41719;SDS011;27405;53.316;-6.294;2022-08-19T03:56:24;21.83;;;3.88;;
41719;SDS011;27405;53.316;-6.294;2022-08-19T03:58:53;17.87;;;3.20;;
41719;SDS011;27405;53.316;-6.294;2022-08-19T04:01:21;18.20;;;3.58;;
41719;SDS011;27405;53.316;-6.294;2022-08-19T04:03:49;17.77;;;3.37;;
41719;SDS011;27405;53.316;-6.294;2022-08-19T04:06:17;22.85;;;3.65;;
41719;SDS011;27405;53.316;-6.294;2022-08-19T04:08:47;22.60;;;3.35;;
41719;SDS011;27405;53.316;-6.294;2022-08-19T04:11:20;15.93;;;3.20;;
41719;SDS011;27405;53.316;-6.294;2022-08-19T04:13:50;21.48;;;3.22;;
41719;SDS011;27405;53.316;-6.294;2022-08-19T04:16:18;21.55;;;4.13;;
41719;SDS011;27405;53.316;-6.294;2022-08-19T04:18:45;15.48;;;3.70;;
41719;SDS011;27405;53.316;-6.294;2022-08-19T04:21:17;17.52;;;3.28;;
41719;SDS011;27405;53.316;-6.294;2022-08-19T04:23:48;19.23;;;3.22;;
41719;SDS011;27405;53.316;-6.294;2022-08-19T04:26:15;23.15;;;3.58;;
41719;SDS011;27405;53.316;-6.294;2022-08-19T04:28:46;16.55;;;3.47;;
41719;SDS011;27405;53.316;-6.294;2022-08-19T04:31:13;18.95;;;3.00;;
41719;SDS011;27405;53.316;-6.294;2022-08-19T04:33:41;17.63;;;3.63;;
41719;SDS011;27405;53.316;-6.294;2022-08-19T04:36:08;17.88;;;3.10;;
41719;SDS011;27405;53.316;-6.294;2022-08-19T04:38:48;19.33;;;3.10;;
41719;SDS011;27405;53.316;-6.294;2022-08-19T04:41:16;17.17;;;3.60;;
41719;SDS011;27405;53.316;-6.294;2022-08-19T04:44:00;18.65;;;3.20;;
41719;SDS011;27405;53.316;-6.294;2022-08-19T04:46:27;22.67;;;3.08;;
41719;SDS011;27405;53.316;-6.294;2022-08-19T04:48:55;22.58;;;3.50;;
41719;SDS011;27405;53.316;-6.294;2022-08-19T04:51:22;19.63;;;3.42;;
41719;SDS011;27405;53.316;-6.294;2022-08-19T04:53:48;18.67;;;3.45;;
41719;SDS011;27405;53.316;-6.294;2022-08-19T04:56:16;20.95;;;3.08;;
41719;SDS011;27405;53.316;-6.294;2022-08-19T04:58:44;21.50;;;3.25;;
41719;SDS011;27405;53.316;-6.294;2022-08-19T05:01:16;16.35;;;2.80;;
41719;SDS011;27405;53.316;-6.294;2022-08-19T05:03:44;22.05;;;3.10;;
41719;SDS011;27405;53.316;-6.294;2022-08-19T05:06:11;15.85;;;2.70;;
41719;SDS011;27405;53.316;-6.294;2022-08-19T05:08:38;16.50;;;2.65;;
41719;SDS011;27405;53.316;-6.294;2022-08-19T05:11:10;19.15;;;3.25;;
41719;SDS011;27405;53.316;-6.294;2022-08-19T05:13:37;22.23;;;3.50;;
41719;SDS011;27405;53.316;-6.294;2022-08-19T05:16:04;21.85;;;3.50;;
41719;SDS011;27405;53.316;-6.294;2022-08-19T05:18:30;16.45;;;2.63;;
41719;SDS011;27405;53.316;-6.294;2022-08-19T05:21:16;18.52;;;3.15;;
41719;SDS011;27405;53.316;-6.294;2022-08-19T05:24:03;19.27;;;3.38;;
41719;SDS011;27405;53.316;-6.294;2022-08-19T05:26:33;17.70;;;2.97;;
41719;SDS011;27405;53.316;-6.294;2022-08-19T05:29:03;16.63;;;2.72;;
41719;SDS011;27405;53.316;-6.294;2022-08-19T05:31:30;19.27;;;3.15;;
41719;SDS011;27405;53.316;-6.294;2022-08-19T05:33:56;17.38;;;3.20;;
41719;SDS011;27405;53.316;-6.294;2022-08-19T05:36:27;19.00;;;3.33;;
41719;SDS011;27405;53.316;-6.294;2022-08-19T05:38:54;18.10;;;3.20;;
41719;SDS011;27405;53.316;-6.294;2022-08-19T05:41:21;19.52;;;2.78;;
41719;SDS011;27405;53.316;-6.294;2022-08-19T05:43:54;16.67;;;2.80;;
41719;SDS011;27405;53.316;-6.294;2022-08-19T05:46:21;18.13;;;2.80;;
41719;SDS011;27405;53.316;-6.294;2022-08-19T05:48:48;16.45;;;2.90;;
41719;SDS011;27405;53.316;-6.294;2022-08-19T05:51:14;16.65;;;2.90;;
41719;SDS011;27405;53.316;-6.294;2022-08-19T05:53:42;15.77;;;2.90;;
41719;SDS011;27405;53.316;-6.294;2022-08-19T05:56:14;15.88;;;2.95;;
41719;SDS011;27405;53.316;-6.294;2022-08-19T05:58:42;14.70;;;2.63;;
41719;SDS011;27405;53.316;-6.294;2022-08-19T06:01:14;12.63;;;2.25;;
41719;SDS011;27405;53.316;-6.294;2022-08-19T06:03:42;15.65;;;2.78;;
41719;SDS011;27405;53.316;-6.294;2022-08-19T06:06:09;13.88;;;2.28;;
41719;SDS011;27405;53.316;-6.294;2022-08-19T06:08:38;16.70;;;2.65;;
41719;SDS011;27405;53.316;-6.294;2022-08-19T06:11:15;13.55;;;2.60;;
41719;SDS011;27405;53.316;-6.294;2022-08-19T06:17:08;18.95;;;2.67;;
41719;SDS011;27405;53.316;-6.294;2022-08-19T06:19:34;11.98;;;2.08;;
41719;SDS011;27405;53.316;-6.294;2022-08-19T06:22:01;10.68;;;2.25;;
41719;SDS011;27405;53.316;-6.294;2022-08-19T06:24:29;12.52;;;2.60;;
41719;SDS011;27405;53.316;-6.294;2022-08-19T06:26:57;16.27;;;2.17;;
41719;SDS011;27405;53.316;-6.294;2022-08-19T06:29:24;12.98;;;2.22;;
41719;SDS011;27405;53.316;-6.294;2022-08-19T06:31:53;15.90;;;2.25;;
41719;SDS011;27405;53.316;-6.294;2022-08-19T06:34:20;13.65;;;2.92;;
41719;SDS011;27405;53.316;-6.294;2022-08-19T06:36:47;15.30;;;2.33;;
41719;SDS011;27405;53.316;-6.294;2022-08-19T06:39:15;10.32;;;2.30;;
41719;SDS011;27405;53.316;-6.294;2022-08-19T06:41:45;15.52;;;2.28;;
41719;SDS011;27405;53.316;-6.294;2022-08-19T06:44:12;14.98;;;2.17;;
41719;SDS011;27405;53.316;-6.294;2022-08-19T06:46:40;14.70;;;2.17;;
41719;SDS011;27405;53.316;-6.294;2022-08-19T06:49:06;15.15;;;2.70;;
41719;SDS011;27405;53.316;-6.294;2022-08-19T06:51:42;17.15;;;2.38;;
41719;SDS011;27405;53.316;-6.294;2022-08-19T06:54:12;12.07;;;2.38;;
41719;SDS011;27405;53.316;-6.294;2022-08-19T06:56:39;19.17;;;2.35;;
41719;SDS011;27405;53.316;-6.294;2022-08-19T06:59:07;14.88;;;2.60;;
41719;SDS011;27405;53.316;-6.294;2022-08-19T07:01:39;13.57;;;2.35;;
41719;SDS011;27405;53.316;-6.294;2022-08-19T07:04:07;11.57;;;1.90;;
41719;SDS011;27405;53.316;-6.294;2022-08-19T07:06:34;12.23;;;1.98;;
41719;SDS011;27405;53.316;-6.294;2022-08-19T07:09:03;13.10;;;2.40;;
41719;SDS011;27405;53.316;-6.294;2022-08-19T07:11:30;9.38;;;2.15;;
41719;SDS011;27405;53.316;-6.294;2022-08-19T07:13:57;15.30;;;2.40;;
41719;SDS011;27405;53.316;-6.294;2022-08-19T07:16:25;14.05;;;2.15;;
41719;SDS011;27405;53.316;-6.294;2022-08-19T07:18:51;13.32;;;2.30;;
41719;SDS011;27405;53.316;-6.294;2022-08-19T07:21:21;17.83;;;2.47;;
41719;SDS011;27405;53.316;-6.294;2022-08-19T07:23:49;13.75;;;2.38;;
41719;SDS011;27405;53.316;-6.294;2022-08-19T07:28:46;14.13;;;2.58;;
41719;SDS011;27405;53.316;-6.294;2022-08-19T07:31:15;11.73;;;1.98;;
41719;SDS011;27405;53.316;-6.294;2022-08-19T07:33:46;10.65;;;1.88;;
41719;SDS011;27405;53.316;-6.294;2022-08-19T07:36:14;14.98;;;2.10;;
41719;SDS011;27405;53.316;-6.294;2022-08-19T07:38:42;11.65;;;2.08;;
41719;SDS011;27405;53.316;-6.294;2022-08-19T07:41:13;11.68;;;1.80;;
41719;SDS011;27405;53.316;-6.294;2022-08-19T07:43:42;9.60;;;1.65;;
41719;SDS011;27405;53.316;-6.294;2022-08-19T07:46:08;12.73;;;1.85;;
41719;SDS011;27405;53.316;-6.294;2022-08-19T07:48:36;9.48;;;1.83;;
41719;SDS011;27405;53.316;-6.294;2022-08-19T07:51:03;7.45;;;1.55;;
41719;SDS011;27405;53.316;-6.294;2022-08-19T07:53:33;9.48;;;1.83;;
41719;SDS011;27405;53.316;-6.294;2022-08-19T07:56:01;8.25;;;1.73;;
41719;SDS011;27405;53.316;-6.294;2022-08-19T07:58:33;11.48;;;1.70;;
41719;SDS011;27405;53.316;-6.294;2022-08-19T08:01:04;10.88;;;1.77;;
41719;SDS011;27405;53.316;-6.294;2022-08-19T08:03:32;11.27;;;1.80;;
41719;SDS011;27405;53.316;-6.294;2022-08-19T08:06:17;17.40;;;2.20;;
41719;SDS011;27405;53.316;-6.294;2022-08-19T08:09:03;13.07;;;2.25;;
41719;SDS011;27405;53.316;-6.294;2022-08-19T08:12:14;14.55;;;2.45;;
41719;SDS011;27405;53.316;-6.294;2022-08-19T08:17:13;14.43;;;2.08;;
41719;SDS011;27405;53.316;-6.294;2022-08-19T08:19:41;10.60;;;2.20;;
41719;SDS011;27405;53.316;-6.294;2022-08-19T08:22:08;9.73;;;1.88;;
41719;SDS011;27405;53.316;-6.294;2022-08-19T08:24:54;13.70;;;2.47;;
41719;SDS011;27405;53.316;-6.294;2022-08-19T08:27:23;12.45;;;1.95;;
41719;SDS011;27405;53.316;-6.294;2022-08-19T08:29:51;13.00;;;2.00;;
41719;SDS011;27405;53.316;-6.294;2022-08-19T08:32:17;9.05;;;1.63;;
41719;SDS011;27405;53.316;-6.294;2022-08-19T08:34:43;8.23;;;1.92;;
41719;SDS011;27405;53.316;-6.294;2022-08-19T08:37:09;11.82;;;2.40;;
41719;SDS011;27405;53.316;-6.294;2022-08-19T08:39:35;15.32;;;2.67;;
41719;SDS011;27405;53.316;-6.294;2022-08-19T08:48:02;9.20;;;1.63;;
41719;SDS011;27405;53.316;-6.294;2022-08-19T08:50:39;10.70;;;1.88;;
41719;SDS011;27405;53.316;-6.294;2022-08-19T08:53:08;10.65;;;1.77;;
41719;SDS011;27405;53.316;-6.294;2022-08-19T08:55:38;12.68;;;1.70;;
41719;SDS011;27405;53.316;-6.294;2022-08-19T08:58:09;8.85;;;1.85;;
41719;SDS011;27405;53.316;-6.294;2022-08-19T09:00:45;8.63;;;1.88;;
41719;SDS011;27405;53.316;-6.294;2022-08-19T09:03:22;9.80;;;1.92;;
41719;SDS011;27405;53.316;-6.294;2022-08-19T09:05:56;7.78;;;1.40;;
41719;SDS011;27405;53.316;-6.294;2022-08-19T09:11:24;8.38;;;1.83;;
41719;SDS011;27405;53.316;-6.294;2022-08-19T09:14:23;10.82;;;2.47;;
41719;SDS011;27405;53.316;-6.294;2022-08-19T09:17:07;8.20;;;1.35;;
41719;SDS011;27405;53.316;-6.294;2022-08-19T09:19:36;12.45;;;1.80;;
41719;SDS011;27405;53.316;-6.294;2022-08-19T09:22:13;9.13;;;1.63;;
41719;SDS011;27405;53.316;-6.294;2022-08-19T09:24:39;4.55;;;1.60;;
41719;SDS011;27405;53.316;-6.294;2022-08-19T09:27:05;7.20;;;1.88;;
41719;SDS011;27405;53.316;-6.294;2022-08-19T09:29:31;8.48;;;1.45;;
41719;SDS011;27405;53.316;-6.294;2022-08-19T09:31:57;11.15;;;1.70;;
41719;SDS011;27405;53.316;-6.294;2022-08-19T09:34:24;9.85;;;1.90;;
41719;SDS011;27405;53.316;-6.294;2022-08-19T09:36:50;11.85;;;1.85;;
41719;SDS011;27405;53.316;-6.294;2022-08-19T09:39:18;9.80;;;2.00;;
41719;SDS011;27405;53.316;-6.294;2022-08-19T09:41:44;11.18;;;2.20;;
41719;SDS011;27405;53.316;-6.294;2022-08-19T09:44:10;10.13;;;2.10;;
41719;SDS011;27405;53.316;-6.294;2022-08-19T09:46:37;10.40;;;2.20;;
41719;SDS011;27405;53.316;-6.294;2022-08-19T09:49:03;9.75;;;1.83;;
41719;SDS011;27405;53.316;-6.294;2022-08-19T09:51:31;10.10;;;2.30;;
41719;SDS011;27405;53.316;-6.294;2022-08-19T09:54:01;9.05;;;2.08;;
41719;SDS011;27405;53.316;-6.294;2022-08-19T09:56:28;8.45;;;1.92;;
41719;SDS011;27405;53.316;-6.294;2022-08-19T09:58:57;9.25;;;1.70;;
41719;SDS011;27405;53.316;-6.294;2022-08-19T10:01:26;17.45;;;2.35;;
41719;SDS011;27405;53.316;-6.294;2022-08-19T10:03:55;12.65;;;2.00;;
41719;SDS011;27405;53.316;-6.294;2022-08-19T10:06:23;14.18;;;2.08;;
41719;SDS011;27405;53.316;-6.294;2022-08-19T10:08:51;5.95;;;1.42;;
41719;SDS011;27405;53.316;-6.294;2022-08-19T10:11:18;8.40;;;1.50;;
41719;SDS011;27405;53.316;-6.294;2022-08-19T10:13:45;10.70;;;1.75;;
41719;SDS011;27405;53.316;-6.294;2022-08-19T10:16:16;12.10;;;1.83;;
41719;SDS011;27405;53.316;-6.294;2022-08-19T10:18:44;11.77;;;2.00;;
41719;SDS011;27405;53.316;-6.294;2022-08-19T10:21:12;9.00;;;2.38;;
41719;SDS011;27405;53.316;-6.294;2022-08-19T10:23:41;13.00;;;2.35;;
41719;SDS011;27405;53.316;-6.294;2022-08-19T10:26:11;5.28;;;1.63;;
41719;SDS011;27405;53.316;-6.294;2022-08-19T10:28:42;12.57;;;1.98;;
41719;SDS011;27405;53.316;-6.294;2022-08-19T10:31:13;5.95;;;1.55;;
41719;SDS011;27405;53.316;-6.294;2022-08-19T10:33:48;7.82;;;1.50;;
41719;SDS011;27405;53.316;-6.294;2022-08-19T10:36:16;9.20;;;1.60;;
41719;SDS011;27405;53.316;-6.294;2022-08-19T10:38:46;10.15;;;2.08;;
41719;SDS011;27405;53.316;-6.294;2022-08-19T10:41:15;12.02;;;2.13;;
41719;SDS011;27405;53.316;-6.294;2022-08-19T10:43:43;13.05;;;2.13;;
41719;SDS011;27405;53.316;-6.294;2022-08-19T10:46:11;12.57;;;2.45;;
41719;SDS011;27405;53.316;-6.294;2022-08-19T10:48:39;12.27;;;2.40;;
41719;SDS011;27405;53.316;-6.294;2022-08-19T10:51:06;11.15;;;2.00;;
41719;SDS011;27405;53.316;-6.294;2022-08-19T10:53:51;16.08;;;2.30;;
41719;SDS011;27405;53.316;-6.294;2022-08-19T10:56:17;12.98;;;1.80;;
41719;SDS011;27405;53.316;-6.294;2022-08-19T10:59:02;13.98;;;1.98;;
41719;SDS011;27405;53.316;-6.294;2022-08-19T11:01:29;12.40;;;2.30;;
41719;SDS011;27405;53.316;-6.294;2022-08-19T11:03:57;11.10;;;2.30;;
41719;SDS011;27405;53.316;-6.294;2022-08-19T11:06:23;14.38;;;2.33;;
41719;SDS011;27405;53.316;-6.294;2022-08-19T11:08:53;11.93;;;2.00;;
41719;SDS011;27405;53.316;-6.294;2022-08-19T11:11:20;7.68;;;1.95;;
41719;SDS011;27405;53.316;-6.294;2022-08-19T11:13:47;8.95;;;1.90;;
41719;SDS011;27405;53.316;-6.294;2022-08-19T11:16:16;9.27;;;1.80;;
41719;SDS011;27405;53.316;-6.294;2022-08-19T11:18:49;9.38;;;2.28;;
41719;SDS011;27405;53.316;-6.294;2022-08-19T11:23:44;12.32;;;2.55;;
41719;SDS011;27405;53.316;-6.294;2022-08-19T11:26:12;11.48;;;2.15;;
41719;SDS011;27405;53.316;-6.294;2022-08-19T11:28:40;13.73;;;2.40;;
41719;SDS011;27405;53.316;-6.294;2022-08-19T11:31:13;11.68;;;2.15;;
41719;SDS011;27405;53.316;-6.294;2022-08-19T11:33:44;8.17;;;1.90;;
41719;SDS011;27405;53.316;-6.294;2022-08-19T11:36:11;10.95;;;2.30;;
41719;SDS011;27405;53.316;-6.294;2022-08-19T11:38:38;10.23;;;2.15;;
41719;SDS011;27405;53.316;-6.294;2022-08-19T11:41:05;8.88;;;2.35;;
41719;SDS011;27405;53.316;-6.294;2022-08-19T11:43:32;9.30;;;2.13;;
41719;SDS011;27405;53.316;-6.294;2022-08-19T11:48:32;9.95;;;2.05;;
41719;SDS011;27405;53.316;-6.294;2022-08-19T11:50:58;8.93;;;2.20;;
41719;SDS011;27405;53.316;-6.294;2022-08-19T11:53:30;10.73;;;2.10;;
41719;SDS011;27405;53.316;-6.294;2022-08-19T11:55:56;11.52;;;2.42;;
41719;SDS011;27405;53.316;-6.294;2022-08-19T11:58:22;11.43;;;2.50;;
41719;SDS011;27405;53.316;-6.294;2022-08-19T12:00:50;10.43;;;2.47;;
41719;SDS011;27405;53.316;-6.294;2022-08-19T12:03:17;16.55;;;3.33;;
41719;SDS011;27405;53.316;-6.294;2022-08-19T12:05:44;12.48;;;3.05;;
41719;SDS011;27405;53.316;-6.294;2022-08-19T12:08:11;10.27;;;2.75;;
41719;SDS011;27405;53.316;-6.294;2022-08-19T12:10:38;11.98;;;2.75;;
41719;SDS011;27405;53.316;-6.294;2022-08-19T12:13:06;17.17;;;3.30;;
41719;SDS011;27405;53.316;-6.294;2022-08-19T12:15:37;13.32;;;2.85;;
41719;SDS011;27405;53.316;-6.294;2022-08-19T12:18:05;8.27;;;2.47;;
41719;SDS011;27405;53.316;-6.294;2022-08-19T12:20:36;12.13;;;2.63;;
41719;SDS011;27405;53.316;-6.294;2022-08-19T12:23:05;8.48;;;2.60;;
41719;SDS011;27405;53.316;-6.294;2022-08-19T12:25:32;11.82;;;2.65;;
41719;SDS011;27405;53.316;-6.294;2022-08-19T12:27:58;13.65;;;3.03;;
41719;SDS011;27405;53.316;-6.294;2022-08-19T12:30:24;8.18;;;2.30;;
41719;SDS011;27405;53.316;-6.294;2022-08-19T12:32:50;12.30;;;2.53;;
41719;SDS011;27405;53.316;-6.294;2022-08-19T12:35:17;11.73;;;2.50;;
41719;SDS011;27405;53.316;-6.294;2022-08-19T12:37:45;10.52;;;2.63;;
41719;SDS011;27405;53.316;-6.294;2022-08-19T12:40:13;11.57;;;2.92;;
41719;SDS011;27405;53.316;-6.294;2022-08-19T12:42:40;10.75;;;2.80;;
41719;SDS011;27405;53.316;-6.294;2022-08-19T12:45:09;10.60;;;2.70;;
41719;SDS011;27405;53.316;-6.294;2022-08-19T12:47:36;9.00;;;2.60;;
41719;SDS011;27405;53.316;-6.294;2022-08-19T12:50:03;10.23;;;2.97;;
41719;SDS011;27405;53.316;-6.294;2022-08-19T12:52:33;9.70;;;2.47;;
41719;SDS011;27405;53.316;-6.294;2022-08-19T12:57:28;10.45;;;2.75;;
41719;SDS011;27405;53.316;-6.294;2022-08-19T12:59:56;10.57;;;2.30;;
41719;SDS011;27405;53.316;-6.294;2022-08-19T13:02:22;12.20;;;3.05;;
41719;SDS011;27405;53.316;-6.294;2022-08-19T13:04:48;11.48;;;2.80;;
41719;SDS011;27405;53.316;-6.294;2022-08-19T13:07:14;13.00;;;3.13;;
41719;SDS011;27405;53.316;-6.294;2022-08-19T13:09:40;13.50;;;2.90;;
41719;SDS011;27405;53.316;-6.294;2022-08-19T13:12:07;10.15;;;2.40;;
41719;SDS011;27405;53.316;-6.294;2022-08-19T13:14:37;16.27;;;3.15;;
41719;SDS011;27405;53.316;-6.294;2022-08-19T13:17:05;12.38;;;2.90;;
41719;SDS011;27405;53.316;-6.294;2022-08-19T13:19:31;10.77;;;3.20;;
41719;SDS011;27405;53.316;-6.294;2022-08-19T13:21:58;9.25;;;2.80;;
41719;SDS011;27405;53.316;-6.294;2022-08-19T13:24:24;15.07;;;3.38;;
41719;SDS011;27405;53.316;-6.294;2022-08-19T13:26:51;14.85;;;3.42;;
41719;SDS011;27405;53.316;-6.294;2022-08-19T13:29:16;12.55;;;2.90;;
41719;SDS011;27405;53.316;-6.294;2022-08-19T13:32:01;13.98;;;3.40;;
41719;SDS011;27405;53.316;-6.294;2022-08-19T13:34:45;11.75;;;2.97;;
41719;SDS011;27405;53.316;-6.294;2022-08-19T13:37:12;7.25;;;2.60;;
41719;SDS011;27405;53.316;-6.294;2022-08-19T13:39:38;9.93;;;2.90;;
41719;SDS011;27405;53.316;-6.294;2022-08-19T13:42:04;11.50;;;2.97;;
41719;SDS011;27405;53.316;-6.294;2022-08-19T13:44:32;12.57;;;2.97;;
41719;SDS011;27405;53.316;-6.294;2022-08-19T13:47:02;8.65;;;2.47;;
41719;SDS011;27405;53.316;-6.294;2022-08-19T13:49:31;10.27;;;2.63;;
41719;SDS011;27405;53.316;-6.294;2022-08-19T13:51:58;9.55;;;2.63;;
41719;SDS011;27405;53.316;-6.294;2022-08-19T13:54:24;9.48;;;2.70;;
41719;SDS011;27405;53.316;-6.294;2022-08-19T13:56:52;8.85;;;2.30;;
41719;SDS011;27405;53.316;-6.294;2022-08-19T13:59:18;12.10;;;2.55;;
41719;SDS011;27405;53.316;-6.294;2022-08-19T14:01:44;10.32;;;2.58;;
41719;SDS011;27405;53.316;-6.294;2022-08-19T14:04:10;9.35;;;2.38;;
41719;SDS011;27405;53.316;-6.294;2022-08-19T14:06:36;8.68;;;2.17;;
41719;SDS011;27405;53.316;-6.294;2022-08-19T14:09:02;8.35;;;2.08;;
41719;SDS011;27405;53.316;-6.294;2022-08-19T14:11:28;6.72;;;2.08;;
41719;SDS011;27405;53.316;-6.294;2022-08-19T14:13:54;9.88;;;2.20;;
41719;SDS011;27405;53.316;-6.294;2022-08-19T14:16:20;9.23;;;2.20;;
41719;SDS011;27405;53.316;-6.294;2022-08-19T14:18:46;9.75;;;2.17;;
41719;SDS011;27405;53.316;-6.294;2022-08-19T14:21:17;10.38;;;2.33;;
41719;SDS011;27405;53.316;-6.294;2022-08-19T14:23:49;6.80;;;1.90;;
41719;SDS011;27405;53.316;-6.294;2022-08-19T14:26:16;6.13;;;2.05;;
41719;SDS011;27405;53.316;-6.294;2022-08-19T14:31:11;10.38;;;2.20;;
41719;SDS011;27405;53.316;-6.294;2022-08-19T14:33:38;12.45;;;2.38;;
41719;SDS011;27405;53.316;-6.294;2022-08-19T14:36:05;11.55;;;2.20;;
41719;SDS011;27405;53.316;-6.294;2022-08-19T14:38:31;15.88;;;2.63;;
41719;SDS011;27405;53.316;-6.294;2022-08-19T14:41:12;14.35;;;2.88;;
41719;SDS011;27405;53.316;-6.294;2022-08-19T14:43:42;12.30;;;2.25;;
41719;SDS011;27405;53.316;-6.294;2022-08-19T14:46:11;10.32;;;2.22;;
41719;SDS011;27405;53.316;-6.294;2022-08-19T14:48:42;8.90;;;2.40;;
41719;SDS011;27405;53.316;-6.294;2022-08-19T14:51:08;18.58;;;2.83;;
41719;SDS011;27405;53.316;-6.294;2022-08-19T14:53:35;12.02;;;2.72;;
41719;SDS011;27405;53.316;-6.294;2022-08-19T14:56:01;11.75;;;2.38;;
41719;SDS011;27405;53.316;-6.294;2022-08-19T14:58:33;13.57;;;2.20;;
41719;SDS011;27405;53.316;-6.294;2022-08-19T15:01:00;7.03;;;2.25;;
41719;SDS011;27405;53.316;-6.294;2022-08-19T15:03:26;9.35;;;2.10;;
41719;SDS011;27405;53.316;-6.294;2022-08-19T15:05:53;8.85;;;2.55;;